Time;durP1;ratioP1;P1;durP2;ratioP2;P2;SDS_P1;SDS_P2;PMS_P1;PMS_P2;Temp;Humidity;BMP_temperature;BMP_pressure;BME280_temperature;BME280_humidity;BME280_pressure;Samples;Min_cycle;Max_cycle;Signal;HPM_P1;HPM_P2
2020/12/25 00:02:06;;;;;;;0.00;0.00;;;13.80;85.20;;;;;;4228890;28;20059;-41
2020/12/25 00:04:26;;;;;;;0.00;0.00;;;13.80;85.20;;;;;;4229341;28;20056;-41
2020/12/25 00:06:47;;;;;;;0.00;0.00;;;13.80;85.30;;;;;;4228532;28;20052;-41
2020/12/25 00:09:09;;;;;;;0.00;0.00;;;13.80;85.40;;;;;;4229153;28;20051;-41
2020/12/25 00:11:31;;;;;;;0.00;0.00;;;13.80;85.30;;;;;;4232478;28;20143;-41
2020/12/25 00:13:52;;;;;;;0.00;0.00;;;13.80;85.50;;;;;;4232332;28;20113;-41
2020/12/25 00:16:13;;;;;;;0.00;0.00;;;14.00;84.90;;;;;;4232113;28;20063;-40
2020/12/25 00:18:34;;;;;;;0.10;0.10;;;14.20;84.10;;;;;;4232319;27;20055;-41
2020/12/25 00:20:55;;;;;;;0.00;0.00;;;14.30;83.50;;;;;;4231935;28;20055;-41
2020/12/25 00:23:17;;;;;;;0.30;0.30;;;14.40;83.10;;;;;;4218933;28;20062;-41
2020/12/25 00:25:38;;;;;;;0.00;0.00;;;14.40;82.90;;;;;;4231938;28;20130;-41
2020/12/25 00:28:00;;;;;;;0.00;0.00;;;14.50;82.80;;;;;;4231910;28;20055;-41
2020/12/25 00:30:20;;;;;;;0.13;0.13;;;14.50;82.80;;;;;;4231779;28;20047;-41
2020/12/25 00:32:41;;;;;;;0.00;0.00;;;14.40;82.80;;;;;;4232138;28;20047;-41
2020/12/25 00:35:02;;;;;;;0.00;0.00;;;14.40;82.80;;;;;;4231734;28;20123;-41
2020/12/25 00:37:23;;;;;;;0.00;0.00;;;14.40;82.90;;;;;;4231792;28;20058;-41
2020/12/25 00:39:44;;;;;;;0.00;0.00;;;14.40;83.10;;;;;;4231552;28;20510;-40
2020/12/25 00:42:05;;;;;;;4.97;1.88;;;14.40;83.10;;;;;;4232292;27;20135;-41
2020/12/25 00:44:26;;;;;;;0.00;0.00;;;14.50;82.80;;;;;;4231581;28;20557;-41
2020/12/25 00:46:49;;;;;;;0.00;0.00;;;14.50;82.40;;;;;;4231439;27;20044;-41
2020/12/25 00:49:14;;;;;;;0.00;0.00;;;14.60;82.30;;;;;;4231733;28;20100;-41
2020/12/25 00:51:39;;;;;;;0.00;0.00;;;14.60;82.30;;;;;;4213663;28;20052;-41
2020/12/25 00:54:00;;;;;;;0.00;0.00;;;14.60;82.30;;;;;;4224383;28;20175;-41
2020/12/25 00:56:36;;;;;;;4.85;0.85;;;14.50;82.30;;;;;;4213401;28;20130;-41
2020/12/25 00:58:57;;;;;;;0.00;0.00;;;14.50;82.50;;;;;;4214935;28;20077;-42
2020/12/25 01:01:23;;;;;;;0.00;0.00;;;14.50;82.70;;;;;;4213659;28;20483;-44
2020/12/25 01:03:46;;;;;;;0.00;0.00;;;14.60;82.60;;;;;;4214717;28;20083;-46
2020/12/25 01:06:10;;;;;;;0.00;0.00;;;14.80;81.60;;;;;;4230352;28;20459;-42
2020/12/25 01:08:31;;;;;;;0.00;0.00;;;15.00;80.30;;;;;;4231265;28;20059;-44
2020/12/25 01:10:53;;;;;;;0.00;0.00;;;15.20;79.50;;;;;;4231622;27;20096;-44
2020/12/25 01:13:14;;;;;;;0.10;0.10;;;15.30;79.00;;;;;;4231092;28;20513;-42
2020/12/25 01:15:35;;;;;;;0.00;0.00;;;15.30;78.90;;;;;;4231422;28;20620;-42
2020/12/25 01:17:56;;;;;;;0.10;0.10;;;15.30;78.80;;;;;;4231219;28;20063;-42
2020/12/25 01:20:17;;;;;;;0.00;0.00;;;15.20;79.00;;;;;;4230639;28;20055;-44
2020/12/25 01:22:38;;;;;;;0.00;0.00;;;15.20;79.00;;;;;;4231158;28;20269;-43
2020/12/25 01:24:59;;;;;;;0.00;0.00;;;15.30;78.60;;;;;;4214112;28;20138;-44
2020/12/25 01:27:20;;;;;;;0.00;0.00;;;15.40;78.40;;;;;;4230984;28;20051;-41
2020/12/25 01:29:40;;;;;;;0.00;0.00;;;15.40;78.20;;;;;;4230772;28;20336;-41
2020/12/25 01:32:01;;;;;;;0.00;0.00;;;15.30;78.20;;;;;;4231075;27;20058;-42
2020/12/25 01:34:27;;;;;;;0.00;0.00;;;15.30;78.30;;;;;;4231312;28;20052;-41
2020/12/25 01:36:48;;;;;;;5.60;1.45;;;15.30;77.90;;;;;;4230840;28;20090;-43
2020/12/25 01:39:08;;;;;;;0.00;0.00;;;15.40;77.80;;;;;;4230791;28;20129;-41
2020/12/25 01:41:29;;;;;;;0.00;0.00;;;15.30;77.70;;;;;;4230049;28;20127;-41
2020/12/25 01:43:53;;;;;;;0.00;0.00;;;15.30;78.70;;;;;;4230848;28;20063;-41
2020/12/25 01:46:14;;;;;;;;;;;15.30;78.30;;;;;;4230803;28;20048;-41
2020/12/25 01:48:36;;;;;;;0.00;0.00;;;15.40;77.90;;;;;;4230699;28;19924;-42
2020/12/25 01:50:59;;;;;;;0.00;0.00;;;15.50;77.20;;;;;;4230551;28;20059;-41
2020/12/25 01:53:21;;;;;;;0.00;0.00;;;15.60;76.80;;;;;;4230515;28;20051;-42
2020/12/25 01:55:43;;;;;;;0.00;0.00;;;15.60;76.60;;;;;;4230553;28;20051;-42
2020/12/25 01:58:05;;;;;;;0.00;0.00;;;15.60;76.60;;;;;;4230555;28;20513;-41
2020/12/25 02:00:28;;;;;;;0.00;0.00;;;15.60;76.70;;;;;;4230411;27;20497;-41
2020/12/25 02:02:52;;;;;;;0.00;0.00;;;15.60;76.60;;;;;;4230605;28;20394;-41
2020/12/25 02:05:13;;;;;;;0.00;0.00;;;15.70;76.60;;;;;;4230114;27;20449;-41
2020/12/25 02:07:35;;;;;;;0.00;0.00;;;15.60;76.50;;;;;;4230416;28;20051;-41
2020/12/25 02:09:57;;;;;;;0.00;0.00;;;15.60;76.80;;;;;;4230219;28;20816;-41
2020/12/25 02:12:18;;;;;;;0.00;0.00;;;15.60;76.70;;;;;;4230343;28;20096;-41
2020/12/25 02:14:39;;;;;;;0.00;0.00;;;15.70;76.70;;;;;;4230500;27;20059;-41
2020/12/25 02:16:59;;;;;;;0.00;0.00;;;15.60;76.50;;;;;;4230280;28;20505;-41
2020/12/25 02:19:20;;;;;;;0.00;0.00;;;15.60;76.60;;;;;;4228837;28;20062;-40
2020/12/25 02:21:42;;;;;;;0.10;0.10;;;15.60;76.80;;;;;;4230570;27;20073;-40
2020/12/25 02:24:04;;;;;;;0.00;0.00;;;15.60;76.70;;;;;;4214269;28;20273;-41
2020/12/25 02:26:25;;;;;;;0.00;0.00;;;15.70;76.40;;;;;;4213055;28;20085;-41
2020/12/25 02:28:46;;;;;;;0.00;0.00;;;15.60;76.50;;;;;;4213206;28;20048;-40
2020/12/25 02:31:07;;;;;;;0.00;0.00;;;15.60;76.50;;;;;;4213605;28;20058;-41
2020/12/25 02:33:28;;;;;;;0.00;0.00;;;15.60;76.80;;;;;;4212752;28;20146;-41
2020/12/25 02:35:49;;;;;;;0.00;0.00;;;15.60;76.60;;;;;;4224912;28;20063;-42
2020/12/25 02:38:11;;;;;;;0.00;0.00;;;15.80;76.10;;;;;;4230335;28;20117;-41
2020/12/25 02:40:32;;;;;;;0.00;0.00;;;15.80;75.80;;;;;;4229790;28;20773;-41
2020/12/25 02:42:53;;;;;;;0.00;0.00;;;15.80;75.70;;;;;;4229783;28;20051;-41
2020/12/25 02:45:14;;;;;;;0.17;0.17;;;15.70;75.80;;;;;;4229894;28;20448;-41
2020/12/25 02:47:35;;;;;;;0.00;0.00;;;15.70;76.10;;;;;;4229530;28;20066;-41
2020/12/25 02:49:56;;;;;;;0.22;0.22;;;15.60;76.50;;;;;;4229684;28;20056;-41
2020/12/25 02:52:17;;;;;;;0.00;0.00;;;15.70;76.40;;;;;;4229823;28;20051;-41
2020/12/25 02:54:39;;;;;;;0.00;0.00;;;15.80;75.90;;;;;;4229224;28;20050;-41
2020/12/25 02:57:00;;;;;;;0.00;0.00;;;15.90;75.40;;;;;;4229745;28;20062;-41
2020/12/25 02:59:21;;;;;;;0.25;0.25;;;15.90;75.30;;;;;;4229491;28;20063;-41
2020/12/25 03:01:42;;;;;;;0.00;0.00;;;15.80;75.30;;;;;;4219619;28;20050;-42
2020/12/25 03:04:03;;;;;;;0.00;0.00;;;15.90;75.20;;;;;;4229671;28;20051;-42
2020/12/25 03:06:24;;;;;;;0.00;0.00;;;15.90;75.00;;;;;;4229461;28;20421;-42
2020/12/25 03:08:45;;;;;;;0.00;0.00;;;15.90;75.00;;;;;;4229323;28;20059;-40
2020/12/25 03:11:06;;;;;;;0.00;0.00;;;15.80;75.20;;;;;;4229384;28;20051;-41
2020/12/25 03:13:27;;;;;;;0.00;0.00;;;15.80;75.30;;;;;;4228700;28;21036;-41
2020/12/25 03:15:48;;;;;;;;;;;15.80;75.30;;;;;;4229259;28;20091;-41
2020/12/25 03:18:09;;;;;;;0.00;0.00;;;15.90;75.20;;;;;;4212561;28;19930;-41
2020/12/25 03:20:29;;;;;;;0.00;0.00;;;15.80;75.30;;;;;;4212453;28;20060;-41
2020/12/25 03:22:50;;;;;;;0.00;0.00;;;15.80;75.50;;;;;;4212693;28;20064;-41
2020/12/25 03:25:11;;;;;;;0.00;0.00;;;15.80;75.10;;;;;;4212184;28;20091;-41
2020/12/25 03:27:33;;;;;;;0.00;0.00;;;15.90;74.80;;;;;;4218719;28;20479;-41
2020/12/25 03:29:55;;;;;;;0.00;0.00;;;15.90;74.50;;;;;;4229681;28;20779;-41
2020/12/25 03:32:19;;;;;;;0.00;0.00;;;15.90;74.60;;;;;;4228949;28;20051;-40
2020/12/25 03:34:40;;;;;;;0.00;0.00;;;15.80;74.80;;;;;;4228926;28;20086;-41
2020/12/25 03:37:01;;;;;;;0.00;0.00;;;15.80;74.90;;;;;;4229504;28;20052;-41
2020/12/25 03:39:22;;;;;;;0.00;0.00;;;15.80;75.00;;;;;;4229098;28;20501;-41
2020/12/25 03:41:43;;;;;;;0.00;0.00;;;15.80;75.20;;;;;;4228912;28;20057;-41
2020/12/25 03:44:05;;;;;;;0.00;0.00;;;15.80;75.60;;;;;;4229229;28;20131;-42
2020/12/25 03:46:31;;;;;;;0.00;0.00;;;15.80;75.30;;;;;;4232663;28;20051;-41
2020/12/25 03:48:52;;;;;;;0.00;0.00;;;16.00;74.40;;;;;;4232664;28;20128;-42
2020/12/25 03:51:13;;;;;;;0.00;0.00;;;16.10;74.00;;;;;;4232573;27;20510;-40
2020/12/25 03:53:34;;;;;;;0.00;0.00;;;16.00;73.80;;;;;;4232496;28;20076;-41
2020/12/25 03:55:55;;;;;;;0.00;0.00;;;16.10;73.80;;;;;;4232100;28;20086;-41
2020/12/25 03:58:16;;;;;;;0.00;0.00;;;16.20;73.40;;;;;;4232342;28;20075;-41
2020/12/25 04:00:37;;;;;;;0.00;0.00;;;16.30;72.90;;;;;;4232552;28;20472;-41
2020/12/25 04:02:58;;;;;;;2.00;1.45;;;16.40;72.50;;;;;;4215480;28;20048;-41
2020/12/25 04:05:19;;;;;;;0.00;0.00;;;16.40;72.40;;;;;;4215721;28;20055;-40
2020/12/25 04:07:39;;;;;;;0.00;0.00;;;16.40;72.30;;;;;;4215702;28;20420;-41
2020/12/25 04:10:01;;;;;;;0.00;0.00;;;16.40;72.30;;;;;;4215469;28;20290;-41
2020/12/25 04:12:22;;;;;;;0.00;0.00;;;16.30;72.30;;;;;;4218180;28;20047;-41
2020/12/25 04:14:42;;;;;;;0.00;0.00;;;16.30;72.60;;;;;;4232054;28;20580;-42
2020/12/25 04:17:04;;;;;;;0.10;0.10;;;16.20;72.90;;;;;;4232385;28;20055;-40
2020/12/25 04:19:28;;;;;;;0.00;0.00;;;16.10;73.30;;;;;;4232129;27;20136;-41
2020/12/25 04:21:49;;;;;;;0.00;0.00;;;16.30;73.10;;;;;;4232412;28;20067;-41
2020/12/25 04:24:09;;;;;;;0.00;0.00;;;16.40;72.20;;;;;;4232171;28;20509;-43
2020/12/25 04:26:30;;;;;;;0.00;0.00;;;16.50;72.00;;;;;;4232224;28;20144;-42
2020/12/25 04:28:52;;;;;;;0.00;0.00;;;16.50;72.00;;;;;;4231511;28;20051;-41
2020/12/25 04:31:12;;;;;;;0.00;0.00;;;16.50;72.00;;;;;;4231950;27;20509;-41
2020/12/25 04:33:34;;;;;;;0.00;0.00;;;16.50;71.80;;;;;;4231819;28;20046;-40
2020/12/25 04:35:56;;;;;;;0.00;0.00;;;16.50;71.80;;;;;;4232075;28;20458;-41
2020/12/25 04:38:16;;;;;;;0.00;0.00;;;16.50;71.80;;;;;;4231895;28;20493;-42
2020/12/25 04:40:37;;;;;;;0.00;0.00;;;16.40;72.00;;;;;;4231928;28;20421;-41
2020/12/25 04:42:59;;;;;;;0.00;0.00;;;16.30;72.30;;;;;;4231454;28;20134;-41
2020/12/25 04:45:19;;;;;;;;;;;16.20;73.60;;;;;;4215124;28;20072;-41
2020/12/25 04:47:40;;;;;;;0.00;0.00;;;16.20;73.10;;;;;;4214988;28;20294;-41
2020/12/25 04:50:02;;;;;;;0.00;0.00;;;16.30;72.80;;;;;;4215178;28;20656;-41
2020/12/25 04:52:23;;;;;;;0.00;0.00;;;16.40;72.20;;;;;;4214571;28;20055;-41
2020/12/25 04:54:44;;;;;;;0.00;0.00;;;16.50;71.80;;;;;;4214762;28;20047;-40
2020/12/25 04:57:04;;;;;;;0.98;0.98;;;16.50;72.60;;;;;;4228071;28;20056;-42
2020/12/25 04:59:29;;;;;;;0.00;0.00;;;16.40;71.80;;;;;;4221247;28;20047;-41
2020/12/25 05:01:53;;;;;;;0.00;0.00;;;16.30;72.00;;;;;;4231324;27;20059;-41
2020/12/25 05:04:21;;;;;;;0.00;0.00;;;16.20;72.40;;;;;;4231397;28;20059;-42
2020/12/25 05:06:46;;;;;;;0.00;0.00;;;16.20;72.80;;;;;;4231593;28;20146;-41
2020/12/25 05:09:06;;;;;;;0.00;0.00;;;16.40;72.20;;;;;;4231074;27;20084;-41
2020/12/25 05:11:27;;;;;;;0.00;0.00;;;16.50;71.50;;;;;;4230878;27;20056;-40
2020/12/25 05:13:49;;;;;;;0.00;0.00;;;16.60;71.20;;;;;;4231423;27;20059;-41
2020/12/25 05:16:11;;;;;;;0.00;0.00;;;16.60;70.30;;;;;;4230922;28;20055;-41
2020/12/25 05:18:32;;;;;;;0.00;0.00;;;16.60;69.60;;;;;;4231466;28;20493;-41
2020/12/25 05:20:54;;;;;;;0.00;0.00;;;16.50;69.70;;;;;;4231191;28;20052;-41
2020/12/25 05:23:16;;;;;;;;;;;16.40;70.00;;;;;;4231735;28;20048;-41
2020/12/25 05:25:39;;;;;;;;;;;16.30;70.50;;;;;;4231479;28;19923;-42
2020/12/25 05:28:11;;;;;;;0.00;0.00;;;16.20;70.90;;;;;;4230821;28;20479;-41
2020/12/25 05:30:33;;;;;;;0.00;0.00;;;16.20;71.10;;;;;;4230802;28;20053;-41
2020/12/25 05:32:54;;;;;;;0.00;0.00;;;16.20;70.80;;;;;;4230922;28;20055;-41
2020/12/25 05:35:15;;;;;;;0.00;0.00;;;16.20;70.50;;;;;;4231232;28;20079;-41
2020/12/25 05:37:38;;;;;;;0.00;0.00;;;16.30;70.60;;;;;;4230878;28;20047;-41
2020/12/25 05:40:01;;;;;;;0.00;0.00;;;16.30;71.60;;;;;;4231152;28;20058;-41
2020/12/25 05:42:22;;;;;;;0.00;0.00;;;16.20;70.90;;;;;;4230498;27;20534;-41
2020/12/25 05:44:47;;;;;;;0.00;0.00;;;16.20;71.20;;;;;;4230965;28;20056;-41
2020/12/25 05:47:08;;;;;;;0.00;0.00;;;16.10;71.60;;;;;;4230501;28;20051;-41
2020/12/25 05:49:30;;;;;;;0.00;0.00;;;16.10;71.90;;;;;;4227519;28;20055;-41
2020/12/25 05:51:51;;;;;;;0.00;0.00;;;16.10;72.10;;;;;;4213735;28;20047;-41
2020/12/25 05:54:15;;;;;;;0.00;0.00;;;16.10;72.00;;;;;;4230248;28;20136;-41
2020/12/25 05:56:38;;;;;;;0.00;0.00;;;16.20;71.70;;;;;;4230474;28;20055;-41
2020/12/25 05:59:00;;;;;;;0.20;0.20;;;16.40;70.70;;;;;;4230792;27;20044;-41
2020/12/25 06:01:21;;;;;;;0.00;0.00;;;16.60;69.90;;;;;;4230283;28;20062;-41
2020/12/25 06:03:44;;;;;;;0.00;0.00;;;16.60;69.50;;;;;;4230705;28;20550;-41
2020/12/25 06:06:12;;;;;;;0.00;0.00;;;16.60;69.50;;;;;;4229815;28;20516;-41
2020/12/25 06:08:37;;;;;;;0.00;0.00;;;16.60;69.80;;;;;;4229788;28;20501;-40
2020/12/25 06:11:02;;;;;;;0.00;0.00;;;16.50;70.00;;;;;;4230756;28;20044;-41
2020/12/25 06:13:33;;;;;;;0.00;0.00;;;16.40;70.60;;;;;;4230294;28;20048;-40
2020/12/25 06:15:54;;;;;;;0.00;0.00;;;16.30;71.10;;;;;;4229817;28;20047;-41
2020/12/25 06:18:27;;;;;;;0.00;0.00;;;16.30;71.50;;;;;;4230597;28;20078;-41
2020/12/25 06:20:56;;;;;;;0.00;0.00;;;16.30;71.60;;;;;;4213258;28;20457;-41
2020/12/25 06:23:17;;;;;;;0.00;0.00;;;16.20;71.80;;;;;;4213456;28;20565;-41
2020/12/25 06:25:40;;;;;;;0.00;0.00;;;16.10;72.10;;;;;;4213236;28;20048;-42
2020/12/25 06:28:02;;;;;;;0.00;0.00;;;16.00;72.50;;;;;;4225137;28;20130;-41
2020/12/25 06:30:24;;;;;;;0.00;0.00;;;16.00;72.60;;;;;;4229960;27;20083;-42
2020/12/25 06:32:49;;;;;;;0.00;0.00;;;16.10;72.20;;;;;;4213065;28;20502;-41
2020/12/25 06:35:09;;;;;;;0.00;0.00;;;16.20;71.80;;;;;;4213654;28;20048;-41
2020/12/25 06:37:39;;;;;;;0.00;0.00;;;16.40;71.20;;;;;;4230080;28;20052;-41
2020/12/25 06:40:06;;;;;;;0.00;0.00;;;16.50;70.60;;;;;;4229913;27;20059;-41
2020/12/25 06:42:32;;;;;;;0.00;0.00;;;16.60;70.30;;;;;;4229924;28;20478;-41
2020/12/25 06:44:56;;;;;;;0.00;0.00;;;16.60;70.10;;;;;;4229774;28;20556;-41
2020/12/25 06:47:29;;;;;;;0.00;0.00;;;16.60;69.80;;;;;;4229390;28;20456;-41
2020/12/25 06:49:50;;;;;;;0.00;0.00;;;16.70;69.50;;;;;;4229660;28;20078;-41
2020/12/25 06:52:10;;;;;;;0.00;0.00;;;16.70;69.50;;;;;;4229991;28;20055;-41
2020/12/25 06:54:39;;;;;;;0.25;0.25;;;16.70;69.70;;;;;;4229857;28;20490;-41
2020/12/25 06:57:04;;;;;;;0.00;0.00;;;16.60;69.80;;;;;;4229011;28;20059;-41
2020/12/25 06:59:25;;;;;;;0.50;0.50;;;16.50;70.10;;;;;;4229826;28;20636;-41
2020/12/25 07:01:47;;;;;;;0.00;0.00;;;16.50;70.50;;;;;;4228869;28;20059;-41
2020/12/25 07:04:22;;;;;;;0.10;0.10;;;16.30;71.00;;;;;;4229500;28;20078;-42
2020/12/25 07:06:46;;;;;;;0.10;0.10;;;16.30;71.40;;;;;;4229277;28;20774;-41
2020/12/25 07:09:11;;;;;;;0.03;0.03;;;16.40;71.80;;;;;;4229389;28;20052;-41
2020/12/25 07:11:34;;;;;;;0.00;0.00;;;16.60;70.90;;;;;;4229526;28;20052;-42
2020/12/25 07:13:55;;;;;;;0.00;0.00;;;16.70;70.10;;;;;;4228754;28;20417;-41
2020/12/25 07:16:16;;;;;;;0.20;0.20;;;16.80;69.90;;;;;;4229287;28;20112;-42
2020/12/25 07:18:37;;;;;;;0.00;0.00;;;16.80;69.60;;;;;;4229127;28;20451;-41
2020/12/25 07:21:01;;;;;;;0.10;0.10;;;16.80;69.70;;;;;;4228170;28;20062;-42
2020/12/25 07:23:22;;;;;;;0.00;0.00;;;16.70;69.90;;;;;;4229016;28;20505;-41
2020/12/25 07:25:43;;;;;;;;;;;16.70;70.20;;;;;;4229765;28;20055;-41
2020/12/25 07:28:05;;;;;;;0.00;0.00;;;16.70;70.10;;;;;;4229540;28;19923;-41
2020/12/25 07:30:26;;;;;;;0.03;0.03;;;16.80;69.80;;;;;;4229692;27;20727;-41
2020/12/25 07:32:47;;;;;;;0.00;0.00;;;16.80;69.60;;;;;;4229469;28;20421;-41
2020/12/25 07:35:07;;;;;;;0.00;0.00;;;16.90;69.50;;;;;;4229186;28;20108;-41
2020/12/25 07:37:29;;;;;;;0.00;0.00;;;16.80;69.60;;;;;;4229178;28;20058;-41
2020/12/25 07:39:55;;;;;;;0.00;0.00;;;16.90;70.10;;;;;;4229075;28;20051;-42
2020/12/25 07:42:19;;;;;;;0.10;0.10;;;16.90;70.40;;;;;;4229367;28;20469;-41
2020/12/25 07:44:42;;;;;;;0.00;0.00;;;16.80;70.30;;;;;;4228959;28;20047;-41
2020/12/25 07:47:03;;;;;;;0.00;0.00;;;16.60;71.00;;;;;;4227869;28;20136;-42
2020/12/25 07:49:24;;;;;;;0.73;0.73;;;16.60;71.20;;;;;;4229062;28;20056;-42
2020/12/25 07:51:48;;;;;;;0.00;0.00;;;16.70;70.70;;;;;;4229190;28;20058;-42
2020/12/25 07:54:10;;;;;;;0.00;0.00;;;16.70;70.50;;;;;;4229098;28;20052;-41
2020/12/25 07:56:33;;;;;;;0.00;0.00;;;16.70;70.80;;;;;;4228872;28;20055;-41
2020/12/25 07:58:54;;;;;;;0.00;0.00;;;16.70;70.90;;;;;;4229214;28;20191;-41
2020/12/25 08:01:17;;;;;;;0.00;0.00;;;16.70;70.80;;;;;;4229153;28;20055;-41
2020/12/25 08:03:39;;;;;;;0.20;0.20;;;16.60;71.00;;;;;;4229075;28;20051;-41
2020/12/25 08:06:02;;;;;;;0.00;0.00;;;16.60;71.30;;;;;;4228785;28;20519;-40
2020/12/25 08:08:38;;;;;;;0.00;0.00;;;16.50;71.70;;;;;;4228131;28;20047;-42
2020/12/25 08:11:01;;;;;;;0.00;0.00;;;16.30;72.30;;;;;;4224001;28;20043;-41
2020/12/25 08:13:23;;;;;;;0.00;0.00;;;16.30;72.80;;;;;;4226732;28;20872;-41
2020/12/25 08:15:43;;;;;;;0.98;0.98;;;16.40;72.60;;;;;;4222391;28;20119;-42
2020/12/25 08:18:07;;;;;;;0.00;0.00;;;16.50;72.50;;;;;;4229236;28;20055;-40
2020/12/25 08:20:28;;;;;;;0.00;0.00;;;16.60;73.40;;;;;;4228164;28;20761;-43
2020/12/25 08:22:50;;;;;;;1.55;1.45;;;16.60;74.20;;;;;;4212300;28;20135;-41
2020/12/25 08:25:11;;;;;;;0.17;0.17;;;16.60;74.30;;;;;;4227251;28;20496;-42
2020/12/25 08:27:33;;;;;;;1.02;0.93;;;16.60;74.20;;;;;;4228769;28;20044;-42
2020/12/25 08:29:54;;;;;;;0.20;0.20;;;16.60;73.90;;;;;;4228780;28;20150;-41
2020/12/25 08:32:14;;;;;;;0.03;0.03;;;16.80;73.20;;;;;;4231392;28;20395;-41
2020/12/25 08:34:36;;;;;;;3.75;1.60;;;17.00;72.10;;;;;;4232135;28;20104;-41
2020/12/25 08:36:57;;;;;;;0.00;0.00;;;17.20;71.10;;;;;;4232118;28;20498;-41
2020/12/25 08:39:26;;;;;;;0.00;0.00;;;17.10;70.70;;;;;;4232137;28;20051;-43
2020/12/25 08:41:53;;;;;;;0.00;0.00;;;17.10;70.60;;;;;;4231846;27;20132;-41
2020/12/25 08:44:15;;;;;;;0.10;0.10;;;17.20;70.50;;;;;;4231720;28;20055;-42
2020/12/25 08:46:36;;;;;;;0.00;0.00;;;17.10;70.50;;;;;;4231674;28;20052;-43
2020/12/25 08:48:57;;;;;;;;;;;17.00;70.70;;;;;;4232225;28;20044;-42
2020/12/25 08:51:19;;;;;;;0.00;0.00;;;16.90;70.90;;;;;;4231903;28;20255;-41
2020/12/25 08:53:49;;;;;;;0.00;0.00;;;16.90;71.00;;;;;;4231923;28;20052;-41
2020/12/25 08:56:15;;;;;;;0.00;0.00;;;17.00;70.80;;;;;;4231863;28;20151;-42
2020/12/25 08:58:36;;;;;;;0.00;0.00;;;16.90;70.80;;;;;;4231914;28;20494;-41
2020/12/25 09:00:59;;;;;;;0.00;0.00;;;16.90;71.00;;;;;;4231529;28;20105;-42
2020/12/25 09:03:20;;;;;;;0.20;0.20;;;16.80;71.30;;;;;;4231636;28;20450;-41
2020/12/25 09:05:40;;;;;;;0.00;0.00;;;16.80;71.60;;;;;;4231592;28;20108;-42
2020/12/25 09:08:02;;;;;;;;;;;16.80;71.50;;;;;;4232025;28;20150;-41
2020/12/25 09:10:22;;;;;;;0.30;0.30;;;16.70;71.50;;;;;;4231611;28;20006;-43
2020/12/25 09:12:43;;;;;;;0.00;0.00;;;16.70;72.40;;;;;;4231647;28;20044;-43
2020/12/25 09:15:04;;;;;;;;;;;16.60;71.90;;;;;;4231771;28;20048;-42
2020/12/25 09:17:26;;;;;;;0.00;0.00;;;16.60;72.20;;;;;;4231507;28;20300;-41
2020/12/25 09:19:47;;;;;;;0.00;0.00;;;16.70;71.70;;;;;;4231510;28;20297;-41
2020/12/25 09:22:08;;;;;;;0.35;0.35;;;16.80;71.20;;;;;;4231627;28;20135;-42
2020/12/25 09:24:28;;;;;;;0.10;0.10;;;16.80;70.90;;;;;;4231412;28;20052;-41
2020/12/25 09:26:49;;;;;;;0.00;0.00;;;16.80;71.90;;;;;;4231287;27;20052;-41
2020/12/25 09:29:10;;;;;;;0.30;0.25;;;16.80;71.00;;;;;;4231243;28;20053;-41
2020/12/25 09:31:31;;;;;;;0.00;0.00;;;16.80;70.80;;;;;;4231382;28;20053;-42
2020/12/25 09:33:53;;;;;;;0.10;0.10;;;16.80;70.90;;;;;;4231290;28;20058;-41
2020/12/25 09:36:14;;;;;;;0.20;0.20;;;16.70;71.20;;;;;;4231152;28;20043;-41
2020/12/25 09:38:36;;;;;;;0.00;0.00;;;16.70;71.40;;;;;;4231106;28;20483;-42
2020/12/25 09:40:57;;;;;;;0.00;0.00;;;16.60;71.30;;;;;;4231092;28;20558;-41
2020/12/25 09:43:18;;;;;;;0.00;0.00;;;16.60;71.50;;;;;;4230293;28;20486;-41
2020/12/25 09:45:38;;;;;;;;;;;16.50;71.80;;;;;;4231054;28;20843;-41
2020/12/25 09:48:00;;;;;;;0.00;0.00;;;16.40;72.20;;;;;;4231001;28;19924;-41
2020/12/25 09:50:22;;;;;;;;;;;16.50;72.10;;;;;;4231499;28;20075;-42
2020/12/25 09:52:43;;;;;;;0.00;0.00;;;16.60;71.60;;;;;;4230872;28;19959;-41
2020/12/25 09:55:04;;;;;;;0.00;0.00;;;16.70;71.20;;;;;;4230823;28;20096;-41
2020/12/25 09:57:26;;;;;;;0.00;0.00;;;16.70;71.10;;;;;;4230904;28;20056;-42
2020/12/25 09:59:46;;;;;;;0.00;0.00;;;16.70;71.20;;;;;;4230755;28;20116;-41
2020/12/25 10:02:07;;;;;;;0.00;0.00;;;16.60;71.00;;;;;;4230855;28;20055;-42
2020/12/25 10:04:28;;;;;;;0.35;0.35;;;16.60;71.30;;;;;;4230675;28;20522;-41
2020/12/25 10:06:51;;;;;;;0.00;0.00;;;16.50;71.50;;;;;;4230341;28;20138;-41
2020/12/25 10:09:12;;;;;;;0.30;0.15;;;16.50;71.80;;;;;;4230550;28;20057;-42
2020/12/25 10:11:33;;;;;;;0.00;0.00;;;16.60;71.60;;;;;;4229628;28;20600;-41
2020/12/25 10:13:54;;;;;;;0.00;0.00;;;16.60;71.10;;;;;;4230773;28;20124;-41
2020/12/25 10:16:14;;;;;;;0.00;0.00;;;16.80;70.40;;;;;;4230537;28;20054;-42
2020/12/25 10:18:35;;;;;;;0.00;0.00;;;17.10;69.20;;;;;;4230449;28;20050;-40
2020/12/25 10:20:56;;;;;;;0.00;0.00;;;17.20;68.30;;;;;;4230222;28;20051;-41
2020/12/25 10:23:18;;;;;;;0.00;0.00;;;17.30;67.90;;;;;;4230362;28;20494;-44
2020/12/25 10:25:39;;;;;;;0.00;0.00;;;17.40;67.30;;;;;;4230326;28;20063;-42
2020/12/25 10:28:00;;;;;;;;;;;17.50;67.10;;;;;;4230772;28;20051;-42
2020/12/25 10:30:21;;;;;;;0.00;0.00;;;17.40;67.10;;;;;;4230371;28;19923;-42
2020/12/25 10:32:42;;;;;;;0.00;0.00;;;17.30;68.40;;;;;;4230220;28;20333;-42
2020/12/25 10:35:04;;;;;;;0.00;0.00;;;17.20;68.00;;;;;;4230222;28;20497;-41
2020/12/25 10:37:25;;;;;;;0.00;0.00;;;17.10;68.50;;;;;;4230232;28;20062;-41
2020/12/25 10:39:47;;;;;;;0.00;0.00;;;16.90;69.20;;;;;;4229941;28;20051;-41
2020/12/25 10:42:08;;;;;;;0.00;0.00;;;16.70;69.80;;;;;;4230114;28;20047;-41
2020/12/25 10:44:29;;;;;;;;;;;16.60;70.50;;;;;;4230579;28;20055;-41
2020/12/25 10:46:50;;;;;;;0.00;0.00;;;16.60;70.80;;;;;;4230110;28;19954;-41
2020/12/25 10:49:11;;;;;;;0.00;0.00;;;16.70;70.40;;;;;;4230002;28;20060;-41
2020/12/25 10:51:32;;;;;;;0.00;0.00;;;16.80;69.40;;;;;;4229956;28;20525;-41
2020/12/25 10:53:52;;;;;;;0.00;0.00;;;16.90;68.90;;;;;;4229690;28;20047;-41
2020/12/25 10:56:20;;;;;;;0.43;0.43;;;16.90;68.60;;;;;;4229867;28;20051;-41
2020/12/25 10:58:41;;;;;;;0.32;0.32;;;16.90;68.40;;;;;;4229807;28;20059;-41
2020/12/25 11:01:02;;;;;;;;;;;17.00;68.20;;;;;;4228623;28;20084;-42
2020/12/25 11:03:23;;;;;;;0.00;0.00;;;16.90;68.30;;;;;;4229702;28;19959;-41
2020/12/25 11:05:44;;;;;;;0.17;0.17;;;16.80;68.70;;;;;;4229486;28;20047;-42
2020/12/25 11:08:06;;;;;;;0.00;0.00;;;16.80;69.20;;;;;;4229854;28;20077;-41
2020/12/25 11:10:44;;;;;;;0.00;0.00;;;16.90;69.00;;;;;;4229775;28;20040;-41
2020/12/25 11:13:05;;;;;;;1.35;0.90;;;16.90;68.60;;;;;;4229610;28;20497;-41
2020/12/25 11:15:28;;;;;;;0.00;0.00;;;16.90;68.60;;;;;;4228579;28;20062;-41
2020/12/25 11:17:49;;;;;;;0.00;0.00;;;16.90;68.90;;;;;;4229637;28;20058;-41
2020/12/25 11:20:10;;;;;;;0.00;0.00;;;16.80;69.10;;;;;;4229585;28;20052;-42
2020/12/25 11:22:30;;;;;;;0.00;0.00;;;16.90;69.00;;;;;;4229553;28;20577;-41
2020/12/25 11:24:51;;;;;;;0.00;0.00;;;16.80;68.80;;;;;;4229579;28;20087;-41
2020/12/25 11:27:12;;;;;;;0.00;0.00;;;16.90;68.90;;;;;;4229400;28;20071;-41
2020/12/25 11:29:34;;;;;;;0.00;0.00;;;16.80;69.10;;;;;;4229392;28;20852;-41
2020/12/25 11:31:54;;;;;;;0.00;0.00;;;16.70;69.60;;;;;;4229674;28;20044;-41
2020/12/25 11:34:15;;;;;;;0.00;0.00;;;16.60;70.00;;;;;;4229437;28;20074;-42
2020/12/25 11:36:37;;;;;;;0.00;0.00;;;16.50;70.50;;;;;;4229413;28;20051;-41
2020/12/25 11:38:58;;;;;;;0.00;0.00;;;16.40;71.00;;;;;;4229368;28;20051;-41
2020/12/25 11:41:21;;;;;;;1.92;1.25;;;16.40;71.30;;;;;;4229323;28;20463;-41
2020/12/25 11:43:43;;;;;;;0.00;0.00;;;16.50;70.80;;;;;;4229414;28;20086;-41
2020/12/25 11:46:05;;;;;;;0.00;0.00;;;16.70;70.00;;;;;;4229344;28;20524;-42
2020/12/25 11:48:26;;;;;;;0.28;0.28;;;16.80;69.50;;;;;;4229342;28;20063;-41
2020/12/25 11:50:46;;;;;;;0.10;0.10;;;16.80;69.20;;;;;;4229261;28;20059;-41
2020/12/25 11:53:07;;;;;;;0.00;0.00;;;16.80;69.40;;;;;;4229206;28;20075;-41
2020/12/25 11:55:28;;;;;;;0.00;0.00;;;16.70;69.50;;;;;;4229320;28;20048;-42
2020/12/25 11:57:49;;;;;;;0.73;0.73;;;16.90;69.10;;;;;;4229233;28;20044;-42
2020/12/25 12:00:10;;;;;;;0.00;0.00;;;17.10;68.10;;;;;;4229067;28;20043;-42
2020/12/25 12:02:32;;;;;;;0.00;0.00;;;17.30;66.90;;;;;;4229536;28;20048;-41
2020/12/25 12:04:53;;;;;;;1.15;0.82;;;17.40;66.40;;;;;;4229333;28;20444;-44
2020/12/25 12:07:13;;;;;;;;;;;17.40;66.50;;;;;;4232726;27;20116;-42
2020/12/25 12:09:34;;;;;;;0.08;0.08;;;17.30;66.80;;;;;;4232450;27;19920;-42
2020/12/25 12:11:56;;;;;;;0.65;0.65;;;17.20;67.40;;;;;;4215684;28;20066;-42
2020/12/25 12:14:17;;;;;;;0.00;0.00;;;17.10;68.00;;;;;;4215610;28;20060;-42
2020/12/25 12:16:37;;;;;;;0.00;0.00;;;17.00;68.50;;;;;;4215648;28;20062;-41
2020/12/25 12:19:03;;;;;;;0.10;0.10;;;16.80;69.10;;;;;;4215622;28;20052;-42
2020/12/25 12:21:25;;;;;;;0.00;0.00;;;16.70;69.90;;;;;;4215574;28;20082;-41
2020/12/25 12:23:46;;;;;;;0.00;0.00;;;16.60;70.60;;;;;;4215542;28;20134;-43